sensor_id;sensor_type;location;lat;lon;timestamp;P1;durP1;ratioP1;P2;durP2;ratioP2
5553;SDS011;2800;49.528;8.666;2024-02-16T00:00:24;8.00;;;4.00;;
5553;SDS011;2800;49.528;8.666;2024-02-16T00:02:51;10.40;;;3.60;;
5553;SDS011;2800;49.528;8.666;2024-02-16T00:05:16;8.50;;;3.20;;
5553;SDS011;2800;49.528;8.666;2024-02-16T00:07:42;8.10;;;3.87;;
5553;SDS011;2800;49.528;8.666;2024-02-16T00:10:08;6.10;;;3.00;;
5553;SDS011;2800;49.528;8.666;2024-02-16T00:12:34;8.43;;;2.90;;
5553;SDS011;2800;49.528;8.666;2024-02-16T00:15:00;5.57;;;2.50;;
5553;SDS011;2800;49.528;8.666;2024-02-16T00:17:27;7.27;;;3.00;;
5553;SDS011;2800;49.528;8.666;2024-02-16T00:19:53;6.90;;;2.97;;
5553;SDS011;2800;49.528;8.666;2024-02-16T00:22:22;8.40;;;2.87;;
5553;SDS011;2800;49.528;8.666;2024-02-16T00:24:48;6.63;;;2.80;;
5553;SDS011;2800;49.528;8.666;2024-02-16T00:27:14;4.80;;;2.20;;
5553;SDS011;2800;49.528;8.666;2024-02-16T00:29:40;6.90;;;3.00;;
5553;SDS011;2800;49.528;8.666;2024-02-16T00:32:06;6.00;;;2.50;;
5553;SDS011;2800;49.528;8.666;2024-02-16T00:34:36;6.47;;;2.70;;
5553;SDS011;2800;49.528;8.666;2024-02-16T00:37:02;12.10;;;2.70;;
5553;SDS011;2800;49.528;8.666;2024-02-16T00:39:29;5.93;;;2.40;;
5553;SDS011;2800;49.528;8.666;2024-02-16T00:41:54;6.50;;;2.80;;
5553;SDS011;2800;49.528;8.666;2024-02-16T00:44:20;7.63;;;2.53;;
5553;SDS011;2800;49.528;8.666;2024-02-16T00:46:45;7.63;;;2.77;;
5553;SDS011;2800;49.528;8.666;2024-02-16T00:49:11;6.20;;;2.53;;
5553;SDS011;2800;49.528;8.666;2024-02-16T00:51:37;5.80;;;2.80;;
5553;SDS011;2800;49.528;8.666;2024-02-16T00:54:04;5.73;;;2.40;;
5553;SDS011;2800;49.528;8.666;2024-02-16T00:56:30;5.60;;;2.50;;
5553;SDS011;2800;49.528;8.666;2024-02-16T00:58:57;6.93;;;2.40;;
5553;SDS011;2800;49.528;8.666;2024-02-16T01:01:22;7.87;;;2.70;;
5553;SDS011;2800;49.528;8.666;2024-02-16T01:03:49;5.97;;;2.87;;
5553;SDS011;2800;49.528;8.666;2024-02-16T01:06:16;6.03;;;2.30;;
5553;SDS011;2800;49.528;8.666;2024-02-16T01:08:42;4.97;;;2.30;;
5553;SDS011;2800;49.528;8.666;2024-02-16T01:11:08;7.10;;;2.53;;
5553;SDS011;2800;49.528;8.666;2024-02-16T01:13:33;8.13;;;2.40;;
5553;SDS011;2800;49.528;8.666;2024-02-16T01:15:59;5.97;;;2.57;;
5553;SDS011;2800;49.528;8.666;2024-02-16T01:18:25;6.33;;;2.67;;
5553;SDS011;2800;49.528;8.666;2024-02-16T01:20:52;5.97;;;2.70;;
5553;SDS011;2800;49.528;8.666;2024-02-16T01:23:18;10.33;;;2.80;;
5553;SDS011;2800;49.528;8.666;2024-02-16T01:25:44;5.07;;;2.37;;
5553;SDS011;2800;49.528;8.666;2024-02-16T01:28:11;5.50;;;2.30;;
5553;SDS011;2800;49.528;8.666;2024-02-16T01:30:37;6.80;;;2.67;;
5553;SDS011;2800;49.528;8.666;2024-02-16T01:33:03;8.40;;;2.67;;
5553;SDS011;2800;49.528;8.666;2024-02-16T01:35:30;7.40;;;2.80;;
5553;SDS011;2800;49.528;8.666;2024-02-16T01:37:55;5.43;;;2.30;;
5553;SDS011;2800;49.528;8.666;2024-02-16T01:40:21;7.10;;;2.67;;
5553;SDS011;2800;49.528;8.666;2024-02-16T01:42:47;7.50;;;2.77;;
5553;SDS011;2800;49.528;8.666;2024-02-16T01:45:12;7.27;;;2.37;;
5553;SDS011;2800;49.528;8.666;2024-02-16T01:47:38;9.00;;;2.83;;
5553;SDS011;2800;49.528;8.666;2024-02-16T01:50:06;6.20;;;2.80;;
5553;SDS011;2800;49.528;8.666;2024-02-16T01:52:32;6.50;;;2.70;;
5553;SDS011;2800;49.528;8.666;2024-02-16T01:55:00;6.63;;;2.90;;
5553;SDS011;2800;49.528;8.666;2024-02-16T01:57:30;6.03;;;3.07;;
5553;SDS011;2800;49.528;8.666;2024-02-16T01:59:56;6.20;;;2.30;;
5553;SDS011;2800;49.528;8.666;2024-02-16T02:02:22;6.27;;;2.77;;
5553;SDS011;2800;49.528;8.666;2024-02-16T02:04:48;9.03;;;2.43;;
5553;SDS011;2800;49.528;8.666;2024-02-16T02:07:14;5.90;;;2.70;;
5553;SDS011;2800;49.528;8.666;2024-02-16T02:09:40;5.80;;;2.93;;
5553;SDS011;2800;49.528;8.666;2024-02-16T02:12:06;6.67;;;2.70;;
5553;SDS011;2800;49.528;8.666;2024-02-16T02:14:33;6.73;;;2.50;;
5553;SDS011;2800;49.528;8.666;2024-02-16T02:16:58;5.27;;;2.53;;
5553;SDS011;2800;49.528;8.666;2024-02-16T02:19:24;7.20;;;2.80;;
5553;SDS011;2800;49.528;8.666;2024-02-16T02:21:50;7.50;;;2.60;;
5553;SDS011;2800;49.528;8.666;2024-02-16T02:24:15;5.17;;;2.33;;
5553;SDS011;2800;49.528;8.666;2024-02-16T02:26:41;6.93;;;2.57;;
5553;SDS011;2800;49.528;8.666;2024-02-16T02:29:07;6.77;;;2.60;;
5553;SDS011;2800;49.528;8.666;2024-02-16T02:31:32;10.57;;;2.70;;
5553;SDS011;2800;49.528;8.666;2024-02-16T02:33:58;6.93;;;2.80;;
5553;SDS011;2800;49.528;8.666;2024-02-16T02:36:24;8.60;;;2.63;;
5553;SDS011;2800;49.528;8.666;2024-02-16T02:38:50;6.70;;;2.50;;
5553;SDS011;2800;49.528;8.666;2024-02-16T02:41:16;7.00;;;2.90;;
5553;SDS011;2800;49.528;8.666;2024-02-16T02:43:44;6.63;;;2.53;;
5553;SDS011;2800;49.528;8.666;2024-02-16T02:46:14;7.20;;;2.30;;
5553;SDS011;2800;49.528;8.666;2024-02-16T02:48:45;7.27;;;2.43;;
5553;SDS011;2800;49.528;8.666;2024-02-16T02:51:11;6.63;;;2.80;;
5553;SDS011;2800;49.528;8.666;2024-02-16T02:53:37;8.07;;;2.60;;
5553;SDS011;2800;49.528;8.666;2024-02-16T02:56:03;8.53;;;2.60;;
5553;SDS011;2800;49.528;8.666;2024-02-16T02:58:29;4.57;;;2.33;;
5553;SDS011;2800;49.528;8.666;2024-02-16T03:00:55;7.30;;;2.67;;
5553;SDS011;2800;49.528;8.666;2024-02-16T03:03:21;5.00;;;2.30;;
5553;SDS011;2800;49.528;8.666;2024-02-16T03:05:47;7.83;;;2.70;;
5553;SDS011;2800;49.528;8.666;2024-02-16T03:08:13;6.33;;;2.77;;
5553;SDS011;2800;49.528;8.666;2024-02-16T03:10:39;10.50;;;2.87;;
5553;SDS011;2800;49.528;8.666;2024-02-16T03:13:05;5.43;;;2.30;;
5553;SDS011;2800;49.528;8.666;2024-02-16T03:15:32;10.40;;;2.80;;
5553;SDS011;2800;49.528;8.666;2024-02-16T03:17:58;7.27;;;2.80;;
5553;SDS011;2800;49.528;8.666;2024-02-16T03:20:24;9.30;;;4.60;;
5553;SDS011;2800;49.528;8.666;2024-02-16T03:22:50;7.37;;;2.77;;
5553;SDS011;2800;49.528;8.666;2024-02-16T03:25:16;11.10;;;3.10;;
5553;SDS011;2800;49.528;8.666;2024-02-16T03:27:41;6.53;;;2.97;;
5553;SDS011;2800;49.528;8.666;2024-02-16T03:30:08;10.50;;;3.00;;
5553;SDS011;2800;49.528;8.666;2024-02-16T03:32:33;7.20;;;2.63;;
5553;SDS011;2800;49.528;8.666;2024-02-16T03:34:59;6.83;;;2.83;;
5553;SDS011;2800;49.528;8.666;2024-02-16T03:37:25;7.90;;;2.77;;
5553;SDS011;2800;49.528;8.666;2024-02-16T03:39:50;7.20;;;2.83;;
5553;SDS011;2800;49.528;8.666;2024-02-16T03:42:16;8.80;;;2.80;;
5553;SDS011;2800;49.528;8.666;2024-02-16T03:44:43;6.20;;;2.83;;
5553;SDS011;2800;49.528;8.666;2024-02-16T03:47:09;6.47;;;2.70;;
5553;SDS011;2800;49.528;8.666;2024-02-16T03:49:34;8.63;;;2.77;;
5553;SDS011;2800;49.528;8.666;2024-02-16T03:52:00;7.90;;;3.03;;
5553;SDS011;2800;49.528;8.666;2024-02-16T03:54:26;5.77;;;3.00;;
5553;SDS011;2800;49.528;8.666;2024-02-16T03:56:53;8.93;;;3.13;;
5553;SDS011;2800;49.528;8.666;2024-02-16T03:59:18;11.07;;;2.63;;
5553;SDS011;2800;49.528;8.666;2024-02-16T04:01:44;5.83;;;2.70;;
5553;SDS011;2800;49.528;8.666;2024-02-16T04:04:10;6.80;;;2.90;;
5553;SDS011;2800;49.528;8.666;2024-02-16T04:06:35;6.17;;;2.83;;
5553;SDS011;2800;49.528;8.666;2024-02-16T04:09:01;7.60;;;3.00;;
5553;SDS011;2800;49.528;8.666;2024-02-16T04:11:27;6.23;;;3.10;;
5553;SDS011;2800;49.528;8.666;2024-02-16T04:13:54;7.43;;;2.97;;
5553;SDS011;2800;49.528;8.666;2024-02-16T04:16:19;6.03;;;2.87;;
5553;SDS011;2800;49.528;8.666;2024-02-16T04:18:47;7.33;;;3.00;;
5553;SDS011;2800;49.528;8.666;2024-02-16T04:21:12;10.37;;;3.07;;
5553;SDS011;2800;49.528;8.666;2024-02-16T04:23:38;6.87;;;2.93;;
5553;SDS011;2800;49.528;8.666;2024-02-16T04:26:03;7.10;;;2.97;;
5553;SDS011;2800;49.528;8.666;2024-02-16T04:28:31;7.60;;;3.20;;
5553;SDS011;2800;49.528;8.666;2024-02-16T04:30:57;6.27;;;3.00;;
5553;SDS011;2800;49.528;8.666;2024-02-16T04:33:22;6.97;;;3.00;;
5553;SDS011;2800;49.528;8.666;2024-02-16T04:35:48;5.60;;;2.70;;
5553;SDS011;2800;49.528;8.666;2024-02-16T04:38:15;5.80;;;2.97;;
5553;SDS011;2800;49.528;8.666;2024-02-16T04:40:42;7.23;;;2.87;;
5553;SDS011;2800;49.528;8.666;2024-02-16T04:43:07;8.07;;;3.20;;
5553;SDS011;2800;49.528;8.666;2024-02-16T04:45:33;11.30;;;3.23;;
5553;SDS011;2800;49.528;8.666;2024-02-16T04:48:03;7.30;;;3.00;;
5553;SDS011;2800;49.528;8.666;2024-02-16T04:50:30;6.67;;;3.10;;
5553;SDS011;2800;49.528;8.666;2024-02-16T04:52:57;7.07;;;3.10;;
5553;SDS011;2800;49.528;8.666;2024-02-16T04:55:22;6.97;;;3.20;;
5553;SDS011;2800;49.528;8.666;2024-02-16T04:57:48;8.50;;;3.10;;
5553;SDS011;2800;49.528;8.666;2024-02-16T05:00:13;7.80;;;3.17;;
5553;SDS011;2800;49.528;8.666;2024-02-16T05:02:39;6.87;;;2.93;;
5553;SDS011;2800;49.528;8.666;2024-02-16T05:05:05;5.37;;;2.73;;
5553;SDS011;2800;49.528;8.666;2024-02-16T05:07:30;6.30;;;3.13;;
5553;SDS011;2800;49.528;8.666;2024-02-16T05:09:56;7.80;;;3.03;;
5553;SDS011;2800;49.528;8.666;2024-02-16T05:12:24;6.20;;;2.90;;
5553;SDS011;2800;49.528;8.666;2024-02-16T05:14:51;8.03;;;3.13;;
5553;SDS011;2800;49.528;8.666;2024-02-16T05:17:17;7.47;;;3.17;;
5553;SDS011;2800;49.528;8.666;2024-02-16T05:19:44;7.77;;;3.30;;
5553;SDS011;2800;49.528;8.666;2024-02-16T05:22:10;8.10;;;3.27;;
5553;SDS011;2800;49.528;8.666;2024-02-16T05:24:35;5.00;;;2.60;;
5553;SDS011;2800;49.528;8.666;2024-02-16T05:27:01;6.10;;;3.20;;
5553;SDS011;2800;49.528;8.666;2024-02-16T05:29:26;9.90;;;6.13;;
5553;SDS011;2800;49.528;8.666;2024-02-16T05:31:52;11.97;;;7.60;;
5553;SDS011;2800;49.528;8.666;2024-02-16T05:34:18;7.47;;;4.07;;
5553;SDS011;2800;49.528;8.666;2024-02-16T05:36:44;6.97;;;3.50;;
5553;SDS011;2800;49.528;8.666;2024-02-16T05:39:09;8.60;;;3.90;;
5553;SDS011;2800;49.528;8.666;2024-02-16T05:41:45;6.60;;;3.53;;
5553;SDS011;2800;49.528;8.666;2024-02-16T05:44:11;8.77;;;3.53;;
5553;SDS011;2800;49.528;8.666;2024-02-16T05:46:36;8.47;;;3.90;;
5553;SDS011;2800;49.528;8.666;2024-02-16T05:49:03;7.87;;;3.83;;
5553;SDS011;2800;49.528;8.666;2024-02-16T05:51:34;6.77;;;3.13;;
5553;SDS011;2800;49.528;8.666;2024-02-16T05:54:01;6.40;;;3.40;;
5553;SDS011;2800;49.528;8.666;2024-02-16T05:56:26;6.97;;;3.57;;
5553;SDS011;2800;49.528;8.666;2024-02-16T05:58:53;6.50;;;3.73;;
5553;SDS011;2800;49.528;8.666;2024-02-16T06:01:19;11.10;;;3.50;;
5553;SDS011;2800;49.528;8.666;2024-02-16T06:03:44;6.57;;;3.60;;
5553;SDS011;2800;49.528;8.666;2024-02-16T06:06:10;10.03;;;3.90;;
5553;SDS011;2800;49.528;8.666;2024-02-16T06:08:35;7.23;;;3.67;;
5553;SDS011;2800;49.528;8.666;2024-02-16T06:11:01;8.40;;;3.80;;
5553;SDS011;2800;49.528;8.666;2024-02-16T06:13:27;7.93;;;3.63;;
5553;SDS011;2800;49.528;8.666;2024-02-16T06:15:54;7.80;;;3.30;;
5553;SDS011;2800;49.528;8.666;2024-02-16T06:18:20;9.60;;;3.50;;
5553;SDS011;2800;49.528;8.666;2024-02-16T06:20:45;7.40;;;3.37;;
5553;SDS011;2800;49.528;8.666;2024-02-16T06:23:11;6.80;;;3.40;;
5553;SDS011;2800;49.528;8.666;2024-02-16T06:25:37;8.90;;;3.50;;
5553;SDS011;2800;49.528;8.666;2024-02-16T06:28:02;8.10;;;3.60;;
5553;SDS011;2800;49.528;8.666;2024-02-16T06:30:29;7.97;;;4.00;;
5553;SDS011;2800;49.528;8.666;2024-02-16T06:32:55;7.93;;;3.67;;
5553;SDS011;2800;49.528;8.666;2024-02-16T06:35:20;11.70;;;4.00;;
5553;SDS011;2800;49.528;8.666;2024-02-16T06:37:46;7.83;;;3.90;;
5553;SDS011;2800;49.528;8.666;2024-02-16T06:40:11;8.80;;;3.80;;
5553;SDS011;2800;49.528;8.666;2024-02-16T06:42:38;8.53;;;4.03;;
5553;SDS011;2800;49.528;8.666;2024-02-16T06:45:03;7.30;;;3.40;;
5553;SDS011;2800;49.528;8.666;2024-02-16T06:47:30;8.73;;;3.93;;
5553;SDS011;2800;49.528;8.666;2024-02-16T06:49:56;9.60;;;4.23;;
5553;SDS011;2800;49.528;8.666;2024-02-16T06:52:21;8.17;;;4.23;;
5553;SDS011;2800;49.528;8.666;2024-02-16T06:54:47;7.10;;;3.83;;
5553;SDS011;2800;49.528;8.666;2024-02-16T06:57:14;11.93;;;4.13;;
5553;SDS011;2800;49.528;8.666;2024-02-16T06:59:40;7.40;;;3.80;;
5553;SDS011;2800;49.528;8.666;2024-02-16T07:02:06;10.07;;;4.03;;
5553;SDS011;2800;49.528;8.666;2024-02-16T07:04:32;9.17;;;4.20;;
5553;SDS011;2800;49.528;8.666;2024-02-16T07:06:57;8.83;;;4.80;;
5553;SDS011;2800;49.528;8.666;2024-02-16T07:09:23;10.03;;;4.43;;
5553;SDS011;2800;49.528;8.666;2024-02-16T07:11:48;10.70;;;4.37;;
5553;SDS011;2800;49.528;8.666;2024-02-16T07:14:15;9.53;;;4.00;;
5553;SDS011;2800;49.528;8.666;2024-02-16T07:16:41;8.30;;;4.57;;
5553;SDS011;2800;49.528;8.666;2024-02-16T07:19:06;7.90;;;4.20;;
5553;SDS011;2800;49.528;8.666;2024-02-16T07:21:32;10.80;;;4.43;;
5553;SDS011;2800;49.528;8.666;2024-02-16T07:23:57;8.53;;;4.60;;
5553;SDS011;2800;49.528;8.666;2024-02-16T07:26:23;8.60;;;4.60;;
5553;SDS011;2800;49.528;8.666;2024-02-16T07:28:49;7.73;;;3.70;;
5553;SDS011;2800;49.528;8.666;2024-02-16T07:31:14;8.27;;;4.07;;
5553;SDS011;2800;49.528;8.666;2024-02-16T07:33:41;8.10;;;4.40;;
5553;SDS011;2800;49.528;8.666;2024-02-16T07:36:07;14.10;;;4.40;;
5553;SDS011;2800;49.528;8.666;2024-02-16T07:38:32;14.30;;;4.00;;
5553;SDS011;2800;49.528;8.666;2024-02-16T07:40:58;9.20;;;3.80;;
5553;SDS011;2800;49.528;8.666;2024-02-16T07:43:24;9.20;;;4.73;;
5553;SDS011;2800;49.528;8.666;2024-02-16T07:45:51;9.13;;;5.20;;
5553;SDS011;2800;49.528;8.666;2024-02-16T07:48:20;8.80;;;4.50;;
5553;SDS011;2800;49.528;8.666;2024-02-16T07:50:46;8.50;;;4.80;;
5553;SDS011;2800;49.528;8.666;2024-02-16T07:53:12;8.90;;;4.57;;
5553;SDS011;2800;49.528;8.666;2024-02-16T07:55:38;8.97;;;4.87;;
5553;SDS011;2800;49.528;8.666;2024-02-16T07:58:03;7.07;;;4.70;;
5553;SDS011;2800;49.528;8.666;2024-02-16T08:00:29;9.20;;;4.40;;
5553;SDS011;2800;49.528;8.666;2024-02-16T08:02:54;9.40;;;4.40;;
5553;SDS011;2800;49.528;8.666;2024-02-16T08:05:20;10.27;;;4.90;;
5553;SDS011;2800;49.528;8.666;2024-02-16T08:07:47;12.43;;;4.20;;
5553;SDS011;2800;49.528;8.666;2024-02-16T08:10:13;7.47;;;3.90;;
5553;SDS011;2800;49.528;8.666;2024-02-16T08:12:38;10.33;;;4.00;;
5553;SDS011;2800;49.528;8.666;2024-02-16T08:15:04;8.30;;;4.40;;
5553;SDS011;2800;49.528;8.666;2024-02-16T08:17:34;8.20;;;4.20;;
5553;SDS011;2800;49.528;8.666;2024-02-16T08:20:00;9.20;;;4.23;;
5553;SDS011;2800;49.528;8.666;2024-02-16T08:22:26;7.90;;;3.97;;
5553;SDS011;2800;49.528;8.666;2024-02-16T08:24:51;10.70;;;4.37;;
5553;SDS011;2800;49.528;8.666;2024-02-16T08:27:17;7.40;;;3.63;;
5553;SDS011;2800;49.528;8.666;2024-02-16T08:29:42;7.40;;;3.77;;
5553;SDS011;2800;49.528;8.666;2024-02-16T08:32:08;8.90;;;4.23;;
5553;SDS011;2800;49.528;8.666;2024-02-16T08:34:34;10.40;;;4.03;;
5553;SDS011;2800;49.528;8.666;2024-02-16T08:37:02;7.97;;;3.80;;
5553;SDS011;2800;49.528;8.666;2024-02-16T08:39:28;9.80;;;4.07;;
5553;SDS011;2800;49.528;8.666;2024-02-16T08:41:54;9.27;;;4.40;;
5553;SDS011;2800;49.528;8.666;2024-02-16T08:44:20;11.00;;;3.90;;
5553;SDS011;2800;49.528;8.666;2024-02-16T08:46:46;8.80;;;4.03;;
5553;SDS011;2800;49.528;8.666;2024-02-16T08:49:13;9.27;;;4.03;;
5553;SDS011;2800;49.528;8.666;2024-02-16T08:51:39;8.20;;;4.70;;
5553;SDS011;2800;49.528;8.666;2024-02-16T08:54:04;8.80;;;4.20;;
5553;SDS011;2800;49.528;8.666;2024-02-16T08:56:30;10.70;;;3.90;;
5553;SDS011;2800;49.528;8.666;2024-02-16T08:58:56;7.10;;;4.17;;
5553;SDS011;2800;49.528;8.666;2024-02-16T09:01:32;9.33;;;4.30;;
5553;SDS011;2800;49.528;8.666;2024-02-16T09:03:58;8.47;;;4.57;;
5553;SDS011;2800;49.528;8.666;2024-02-16T09:06:24;10.13;;;4.50;;
5553;SDS011;2800;49.528;8.666;2024-02-16T09:08:49;8.80;;;4.87;;
5553;SDS011;2800;49.528;8.666;2024-02-16T09:11:15;9.40;;;4.80;;
5553;SDS011;2800;49.528;8.666;2024-02-16T09:13:42;11.97;;;4.40;;
5553;SDS011;2800;49.528;8.666;2024-02-16T09:16:07;10.50;;;5.30;;
5553;SDS011;2800;49.528;8.666;2024-02-16T09:18:33;8.50;;;4.57;;
5553;SDS011;2800;49.528;8.666;2024-02-16T09:20:58;10.70;;;4.80;;
5553;SDS011;2800;49.528;8.666;2024-02-16T09:23:24;7.67;;;4.57;;
5553;SDS011;2800;49.528;8.666;2024-02-16T09:25:51;8.40;;;4.63;;
5553;SDS011;2800;49.528;8.666;2024-02-16T09:28:16;9.80;;;5.10;;
5553;SDS011;2800;49.528;8.666;2024-02-16T09:30:44;9.67;;;4.90;;
5553;SDS011;2800;49.528;8.666;2024-02-16T09:33:09;11.30;;;5.07;;
5553;SDS011;2800;49.528;8.666;2024-02-16T09:35:35;10.00;;;4.70;;
5553;SDS011;2800;49.528;8.666;2024-02-16T09:38:01;8.10;;;4.50;;
5553;SDS011;2800;49.528;8.666;2024-02-16T09:40:26;10.37;;;4.90;;
5553;SDS011;2800;49.528;8.666;2024-02-16T09:42:52;9.20;;;5.10;;
5553;SDS011;2800;49.528;8.666;2024-02-16T09:45:17;12.87;;;5.10;;
5553;SDS011;2800;49.528;8.666;2024-02-16T09:47:43;10.30;;;5.40;;
5553;SDS011;2800;49.528;8.666;2024-02-16T09:50:12;7.93;;;4.90;;
5553;SDS011;2800;49.528;8.666;2024-02-16T09:52:38;7.73;;;4.30;;
5553;SDS011;2800;49.528;8.666;2024-02-16T09:55:04;8.73;;;5.07;;
5553;SDS011;2800;49.528;8.666;2024-02-16T09:57:34;7.70;;;4.60;;
5553;SDS011;2800;49.528;8.666;2024-02-16T10:00:00;12.80;;;5.70;;
5553;SDS011;2800;49.528;8.666;2024-02-16T10:02:28;21.13;;;5.07;;
5553;SDS011;2800;49.528;8.666;2024-02-16T10:05:13;9.47;;;5.20;;
5553;SDS011;2800;49.528;8.666;2024-02-16T10:07:40;8.80;;;4.57;;
5553;SDS011;2800;49.528;8.666;2024-02-16T10:10:19;11.80;;;7.17;;
5553;SDS011;2800;49.528;8.666;2024-02-16T10:12:49;9.90;;;5.10;;
5553;SDS011;2800;49.528;8.666;2024-02-16T10:15:21;8.17;;;4.30;;
5553;SDS011;2800;49.528;8.666;2024-02-16T10:20:44;9.73;;;5.03;;
5553;SDS011;2800;49.528;8.666;2024-02-16T10:23:10;12.97;;;8.27;;
5553;SDS011;2800;49.528;8.666;2024-02-16T10:25:37;8.63;;;4.80;;
5553;SDS011;2800;49.528;8.666;2024-02-16T10:28:06;10.47;;;6.10;;
5553;SDS011;2800;49.528;8.666;2024-02-16T10:30:36;11.20;;;6.40;;
5553;SDS011;2800;49.528;8.666;2024-02-16T10:33:03;11.07;;;6.33;;
5553;SDS011;2800;49.528;8.666;2024-02-16T10:35:35;10.27;;;5.53;;
5553;SDS011;2800;49.528;8.666;2024-02-16T10:38:02;9.73;;;5.97;;
5553;SDS011;2800;49.528;8.666;2024-02-16T10:40:38;10.23;;;4.67;;
5553;SDS011;2800;49.528;8.666;2024-02-16T10:43:05;7.13;;;4.07;;
5553;SDS011;2800;49.528;8.666;2024-02-16T10:45:35;9.80;;;4.00;;
5553;SDS011;2800;49.528;8.666;2024-02-16T10:48:02;7.90;;;4.37;;
5553;SDS011;2800;49.528;8.666;2024-02-16T10:50:29;9.07;;;4.80;;
5553;SDS011;2800;49.528;8.666;2024-02-16T10:52:57;11.87;;;4.00;;
5553;SDS011;2800;49.528;8.666;2024-02-16T10:55:25;9.67;;;4.00;;
5553;SDS011;2800;49.528;8.666;2024-02-16T10:57:51;11.73;;;4.20;;
5553;SDS011;2800;49.528;8.666;2024-02-16T11:00:19;7.33;;;3.87;;
5553;SDS011;2800;49.528;8.666;2024-02-16T11:02:54;9.93;;;4.10;;
5553;SDS011;2800;49.528;8.666;2024-02-16T11:05:39;11.20;;;4.60;;
5553;SDS011;2800;49.528;8.666;2024-02-16T11:08:12;14.70;;;4.43;;
5553;SDS011;2800;49.528;8.666;2024-02-16T11:10:40;9.50;;;4.00;;
5553;SDS011;2800;49.528;8.666;2024-02-16T11:13:05;8.10;;;4.13;;
5553;SDS011;2800;49.528;8.666;2024-02-16T11:15:33;10.17;;;6.10;;
5553;SDS011;2800;49.528;8.666;2024-02-16T11:18:02;9.83;;;4.40;;
5553;SDS011;2800;49.528;8.666;2024-02-16T11:20:35;14.03;;;4.47;;
5553;SDS011;2800;49.528;8.666;2024-02-16T11:23:04;8.23;;;4.27;;
5553;SDS011;2800;49.528;8.666;2024-02-16T11:25:32;11.40;;;4.93;;
5553;SDS011;2800;49.528;8.666;2024-02-16T11:27:58;14.53;;;4.50;;
5553;SDS011;2800;49.528;8.666;2024-02-16T11:30:24;10.77;;;5.77;;
5553;SDS011;2800;49.528;8.666;2024-02-16T11:32:50;9.90;;;4.47;;
5553;SDS011;2800;49.528;8.666;2024-02-16T11:35:16;7.20;;;3.93;;
5553;SDS011;2800;49.528;8.666;2024-02-16T11:37:42;11.23;;;4.10;;
5553;SDS011;2800;49.528;8.666;2024-02-16T11:40:10;9.37;;;3.77;;
5553;SDS011;2800;49.528;8.666;2024-02-16T11:42:37;11.93;;;4.90;;
5553;SDS011;2800;49.528;8.666;2024-02-16T11:45:02;11.73;;;4.57;;
5553;SDS011;2800;49.528;8.666;2024-02-16T11:47:28;11.37;;;4.53;;
5553;SDS011;2800;49.528;8.666;2024-02-16T11:50:03;11.40;;;4.27;;
5553;SDS011;2800;49.528;8.666;2024-02-16T11:52:31;6.63;;;3.80;;
5553;SDS011;2800;49.528;8.666;2024-02-16T11:54:57;15.30;;;4.17;;
5553;SDS011;2800;49.528;8.666;2024-02-16T11:57:28;12.53;;;4.77;;
5553;SDS011;2800;49.528;8.666;2024-02-16T11:59:54;8.40;;;3.77;;
5553;SDS011;2800;49.528;8.666;2024-02-16T12:02:20;9.30;;;4.23;;
5553;SDS011;2800;49.528;8.666;2024-02-16T12:04:57;9.27;;;4.40;;
5553;SDS011;2800;49.528;8.666;2024-02-16T12:07:26;10.40;;;5.43;;
5553;SDS011;2800;49.528;8.666;2024-02-16T12:09:58;9.37;;;3.90;;
5553;SDS011;2800;49.528;8.666;2024-02-16T12:12:25;9.97;;;4.10;;
5553;SDS011;2800;49.528;8.666;2024-02-16T12:14:52;11.50;;;4.47;;
5553;SDS011;2800;49.528;8.666;2024-02-16T12:17:21;7.77;;;3.90;;
5553;SDS011;2800;49.528;8.666;2024-02-16T12:19:47;9.23;;;4.50;;
5553;SDS011;2800;49.528;8.666;2024-02-16T12:22:17;9.00;;;4.30;;
5553;SDS011;2800;49.528;8.666;2024-02-16T12:24:44;7.50;;;3.70;;
5553;SDS011;2800;49.528;8.666;2024-02-16T12:27:10;13.50;;;4.80;;
5553;SDS011;2800;49.528;8.666;2024-02-16T12:29:36;18.30;;;4.20;;
5553;SDS011;2800;49.528;8.666;2024-02-16T12:32:01;8.90;;;3.83;;
5553;SDS011;2800;49.528;8.666;2024-02-16T12:34:27;13.43;;;4.73;;
5553;SDS011;2800;49.528;8.666;2024-02-16T12:36:53;10.27;;;4.60;;
5553;SDS011;2800;49.528;8.666;2024-02-16T12:39:18;9.27;;;4.43;;
5553;SDS011;2800;49.528;8.666;2024-02-16T12:41:44;9.77;;;4.10;;
5553;SDS011;2800;49.528;8.666;2024-02-16T12:44:11;8.33;;;4.43;;
5553;SDS011;2800;49.528;8.666;2024-02-16T12:46:36;8.50;;;3.93;;
5553;SDS011;2800;49.528;8.666;2024-02-16T12:49:03;10.90;;;4.20;;
5553;SDS011;2800;49.528;8.666;2024-02-16T12:51:29;10.00;;;4.13;;
5553;SDS011;2800;49.528;8.666;2024-02-16T12:53:55;8.53;;;4.03;;
5553;SDS011;2800;49.528;8.666;2024-02-16T12:56:21;17.57;;;4.50;;
5553;SDS011;2800;49.528;8.666;2024-02-16T12:58:46;13.30;;;4.37;;
5553;SDS011;2800;49.528;8.666;2024-02-16T13:01:12;7.87;;;3.90;;
5553;SDS011;2800;49.528;8.666;2024-02-16T13:03:38;6.97;;;3.47;;
5553;SDS011;2800;49.528;8.666;2024-02-16T13:06:04;8.77;;;3.80;;
5553;SDS011;2800;49.528;8.666;2024-02-16T13:08:30;9.53;;;3.73;;
5553;SDS011;2800;49.528;8.666;2024-02-16T13:10:56;10.80;;;3.30;;
5553;SDS011;2800;49.528;8.666;2024-02-16T13:13:22;12.90;;;4.10;;
5553;SDS011;2800;49.528;8.666;2024-02-16T13:15:48;16.00;;;3.90;;
5553;SDS011;2800;49.528;8.666;2024-02-16T13:18:14;9.70;;;3.60;;
5553;SDS011;2800;49.528;8.666;2024-02-16T13:20:40;8.50;;;3.30;;
5553;SDS011;2800;49.528;8.666;2024-02-16T13:23:06;10.23;;;3.60;;
5553;SDS011;2800;49.528;8.666;2024-02-16T13:25:32;8.27;;;3.00;;
5553;SDS011;2800;49.528;8.666;2024-02-16T13:27:57;10.90;;;4.00;;
5553;SDS011;2800;49.528;8.666;2024-02-16T13:30:24;10.90;;;3.57;;
5553;SDS011;2800;49.528;8.666;2024-02-16T13:32:50;9.47;;;3.37;;
5553;SDS011;2800;49.528;8.666;2024-02-16T13:35:16;10.57;;;3.70;;
5553;SDS011;2800;49.528;8.666;2024-02-16T13:37:41;8.93;;;3.23;;
5553;SDS011;2800;49.528;8.666;2024-02-16T13:40:07;7.87;;;3.27;;
5553;SDS011;2800;49.528;8.666;2024-02-16T13:42:37;10.07;;;3.57;;
5553;SDS011;2800;49.528;8.666;2024-02-16T13:45:04;9.73;;;3.90;;
5553;SDS011;2800;49.528;8.666;2024-02-16T13:47:29;9.17;;;3.70;;
5553;SDS011;2800;49.528;8.666;2024-02-16T13:49:55;10.40;;;4.30;;
5553;SDS011;2800;49.528;8.666;2024-02-16T13:52:22;10.97;;;4.47;;
5553;SDS011;2800;49.528;8.666;2024-02-16T13:54:48;9.43;;;4.30;;
5553;SDS011;2800;49.528;8.666;2024-02-16T13:57:14;8.17;;;3.43;;
5553;SDS011;2800;49.528;8.666;2024-02-16T13:59:40;11.90;;;3.67;;
5553;SDS011;2800;49.528;8.666;2024-02-16T14:02:06;9.50;;;3.33;;
5553;SDS011;2800;49.528;8.666;2024-02-16T14:04:32;11.00;;;3.27;;
5553;SDS011;2800;49.528;8.666;2024-02-16T14:06:58;11.83;;;3.90;;
5553;SDS011;2800;49.528;8.666;2024-02-16T14:09:23;9.30;;;3.43;;
5553;SDS011;2800;49.528;8.666;2024-02-16T14:11:49;9.20;;;3.50;;
5553;SDS011;2800;49.528;8.666;2024-02-16T14:14:16;11.00;;;4.67;;
5553;SDS011;2800;49.528;8.666;2024-02-16T14:16:42;11.80;;;4.00;;
5553;SDS011;2800;49.528;8.666;2024-02-16T14:19:07;8.73;;;3.60;;
5553;SDS011;2800;49.528;8.666;2024-02-16T14:21:33;11.20;;;4.23;;
5553;SDS011;2800;49.528;8.666;2024-02-16T14:23:59;10.53;;;4.40;;
5553;SDS011;2800;49.528;8.666;2024-02-16T14:26:24;13.80;;;4.10;;
5553;SDS011;2800;49.528;8.666;2024-02-16T14:28:50;12.37;;;3.80;;
5553;SDS011;2800;49.528;8.666;2024-02-16T14:31:15;14.43;;;3.30;;
5553;SDS011;2800;49.528;8.666;2024-02-16T14:33:42;10.10;;;2.90;;
5553;SDS011;2800;49.528;8.666;2024-02-16T14:36:09;8.30;;;3.00;;
5553;SDS011;2800;49.528;8.666;2024-02-16T14:38:34;8.97;;;2.97;;
5553;SDS011;2800;49.528;8.666;2024-02-16T14:41:00;9.70;;;2.80;;
5553;SDS011;2800;49.528;8.666;2024-02-16T14:43:30;10.20;;;3.10;;
5553;SDS011;2800;49.528;8.666;2024-02-16T14:45:59;6.70;;;2.83;;
5553;SDS011;2800;49.528;8.666;2024-02-16T14:48:26;9.50;;;2.67;;
5553;SDS011;2800;49.528;8.666;2024-02-16T14:50:51;12.60;;;2.90;;
5553;SDS011;2800;49.528;8.666;2024-02-16T14:53:21;6.63;;;2.70;;
5553;SDS011;2800;49.528;8.666;2024-02-16T14:55:47;13.30;;;3.13;;
5553;SDS011;2800;49.528;8.666;2024-02-16T14:58:15;7.47;;;3.03;;
5553;SDS011;2800;49.528;8.666;2024-02-16T15:00:40;13.70;;;6.43;;
5553;SDS011;2800;49.528;8.666;2024-02-16T15:03:06;9.37;;;4.20;;
5553;SDS011;2800;49.528;8.666;2024-02-16T15:05:32;11.60;;;4.90;;
5553;SDS011;2800;49.528;8.666;2024-02-16T15:07:57;9.17;;;3.60;;
5553;SDS011;2800;49.528;8.666;2024-02-16T15:10:23;16.20;;;6.10;;